Time;durP1;ratioP1;P1;durP2;ratioP2;P2;SDS_P1;SDS_P2;PMS_P1;PMS_P2;Temp;Humidity;BMP_temperature;BMP_pressure;BME280_temperature;BME280_humidity;BME280_pressure;Samples;Min_cycle;Max_cycle;Signal;HPM_P1;HPM_P2
2023/10/30 00:00:31;;;;;;;11.32;2.90;;;;;;;;;;4957304;28;94903;-60
2023/10/30 00:02:58;;;;;;;17.73;2.10;;;;;;;;;;4962670;28;93393;-60
2023/10/30 00:05:24;;;;;;;8.88;2.05;;;;;;;;;;4962667;28;92676;-60
2023/10/30 00:07:50;;;;;;;12.75;2.00;;;;;;;;;;4965186;28;93077;-60
2023/10/30 00:10:17;;;;;;;6.15;1.58;;;;;;;;;;4964930;28;92524;-60
2023/10/30 00:12:43;;;;;;;9.60;2.20;;;;;;;;;;4952843;28;93074;-61
2023/10/30 00:15:09;;;;;;;9.27;1.80;;;;;;;;;;4960454;28;94441;-60
2023/10/30 00:17:36;;;;;;;8.20;1.58;;;;;;;;;;4954628;28;91635;-60
2023/10/30 00:20:03;;;;;;;11.43;2.15;;;;;;;;;;4962028;28;92766;-60
2023/10/30 00:22:29;;;;;;;15.52;1.90;;;;;;;;;;4961114;28;93418;-61
2023/10/30 00:24:55;;;;;;;11.45;2.00;;;;;;;;;;4963794;28;94818;-61
2023/10/30 00:27:22;;;;;;;8.95;1.52;;;;;;;;;;4957238;28;95612;-59
2023/10/30 00:29:48;;;;;;;9.88;2.03;;;;;;;;;;4961895;28;93064;-61
2023/10/30 00:32:15;;;;;;;9.68;1.90;;;;;;;;;;4956437;28;94105;-60
2023/10/30 00:34:41;;;;;;;14.95;2.65;;;;;;;;;;4962798;28;93437;-60
2023/10/30 00:37:09;;;;;;;10.63;2.30;;;;;;;;;;4960659;28;92844;-60
2023/10/30 00:39:37;;;;;;;11.65;2.53;;;;;;;;;;4957138;28;94086;-61
2023/10/30 00:42:03;;;;;;;17.10;2.15;;;;;;;;;;4956500;28;92693;-59
2023/10/30 00:44:30;;;;;;;11.75;2.15;;;;;;;;;;4959901;28;92574;-60
2023/10/30 00:46:56;;;;;;;7.25;1.73;;;;;;;;;;4963724;28;93220;-60
2023/10/30 00:49:23;;;;;;;11.10;2.00;;;;;;;;;;4956468;28;97035;-60
2023/10/30 00:51:49;;;;;;;18.42;2.55;;;;;;;;;;4961166;28;92564;-60
2023/10/30 00:54:15;;;;;;;12.68;1.63;;;;;;;;;;4954239;28;93410;-61
2023/10/30 00:56:42;;;;;;;12.70;2.08;;;;;;;;;;4956269;28;93252;-60
2023/10/30 00:59:08;;;;;;;11.57;1.77;;;;;;;;;;4959260;28;93180;-60
2023/10/30 01:01:35;;;;;;;13.50;1.92;;;;;;;;;;4962600;28;93469;-60
2023/10/30 01:04:01;;;;;;;15.32;2.40;;;;;;;;;;4957051;28;95450;-59
2023/10/30 01:06:28;;;;;;;18.35;3.13;;;;;;;;;;4965159;28;93240;-60
2023/10/30 01:08:54;;;;;;;6.32;1.88;;;;;;;;;;4959539;28;92593;-60
2023/10/30 01:11:20;;;;;;;18.63;1.92;;;;;;;;;;4951524;28;92584;-60
2023/10/30 01:13:47;;;;;;;9.65;2.28;;;;;;;;;;4959945;28;95065;-60
2023/10/30 01:16:13;;;;;;;16.25;2.17;;;;;;;;;;4955739;28;92838;-60
2023/10/30 01:18:40;;;;;;;11.15;2.03;;;;;;;;;;4956611;28;92800;-60
2023/10/30 01:21:09;;;;;;;8.35;2.28;;;;;;;;;;4959301;28;93711;-60
2023/10/30 01:23:36;;;;;;;15.57;1.80;;;;;;;;;;4955453;28;92521;-61
2023/10/30 01:26:02;;;;;;;18.58;1.90;;;;;;;;;;4958397;28;93146;-60
2023/10/30 01:28:29;;;;;;;11.48;2.13;;;;;;;;;;4951052;28;92451;-60
2023/10/30 01:30:55;;;;;;;14.43;2.28;;;;;;;;;;4958906;28;91668;-60
2023/10/30 01:33:23;;;;;;;10.57;1.60;;;;;;;;;;4955559;28;93720;-60
2023/10/30 01:35:49;;;;;;;7.78;1.90;;;;;;;;;;4962150;28;93183;-61
2023/10/30 01:38:15;;;;;;;11.10;2.05;;;;;;;;;;4961695;28;94923;-61
2023/10/30 01:40:48;;;;;;;10.52;2.08;;;;;;;;;;4960557;28;93434;-59
2023/10/30 01:43:15;;;;;;;13.07;2.00;;;;;;;;;;4961304;28;92392;-60
2023/10/30 01:45:42;;;;;;;7.85;1.85;;;;;;;;;;4963239;28;93171;-59
2023/10/30 01:48:09;;;;;;;12.05;2.53;;;;;;;;;;4962675;28;93544;-59
2023/10/30 01:50:36;;;;;;;8.95;1.83;;;;;;;;;;4958212;28;92601;-61
2023/10/30 01:53:03;;;;;;;13.70;2.00;;;;;;;;;;4957763;28;93178;-61
2023/10/30 01:55:30;;;;;;;18.05;2.10;;;;;;;;;;4966821;28;91687;-60
2023/10/30 01:57:56;;;;;;;13.18;3.03;;;;;;;;;;4961634;28;93392;-60
2023/10/30 02:00:23;;;;;;;14.35;2.40;;;;;;;;;;4959179;28;93521;-59
2023/10/30 02:02:50;;;;;;;14.30;2.65;;;;;;;;;;4960442;28;94979;-59
2023/10/30 02:05:17;;;;;;;14.88;2.30;;;;;;;;;;4963372;28;96039;-60
2023/10/30 02:07:44;;;;;;;11.07;2.10;;;;;;;;;;4959729;28;93373;-60
2023/10/30 02:10:11;;;;;;;13.25;2.10;;;;;;;;;;4963230;28;92497;-60
2023/10/30 02:12:37;;;;;;;14.63;2.30;;;;;;;;;;4964432;28;93322;-59
2023/10/30 02:15:04;;;;;;;9.32;2.00;;;;;;;;;;4960047;28;93420;-60
2023/10/30 02:17:30;;;;;;;14.77;2.10;;;;;;;;;;4967335;28;92495;-59
2023/10/30 02:19:57;;;;;;;16.42;2.40;;;;;;;;;;4964586;28;92677;-59
2023/10/30 02:22:23;;;;;;;10.48;1.73;;;;;;;;;;4963449;28;92533;-59
2023/10/30 02:24:49;;;;;;;19.85;2.40;;;;;;;;;;4961820;28;93016;-59
2023/10/30 02:27:17;;;;;;;13.05;2.83;;;;;;;;;;4959013;28;95776;-58
2023/10/30 02:29:43;;;;;;;19.02;2.80;;;;;;;;;;4965077;28;92467;-60
2023/10/30 02:32:10;;;;;;;12.10;1.90;;;;;;;;;;4962599;28;93152;-59
2023/10/30 02:34:36;;;;;;;11.88;2.67;;;;;;;;;;4955298;28;94309;-59
2023/10/30 02:37:02;;;;;;;15.18;2.33;;;;;;;;;;4958225;28;92846;-58
2023/10/30 02:39:32;;;;;;;11.52;2.33;;;;;;;;;;4960634;28;93089;-59
2023/10/30 02:42:00;;;;;;;15.40;2.42;;;;;;;;;;4957253;28;92420;-59
2023/10/30 02:44:28;;;;;;;11.30;1.77;;;;;;;;;;4950271;28;91988;-60
2023/10/30 02:46:55;;;;;;;15.90;2.08;;;;;;;;;;4957649;28;92616;-59
2023/10/30 02:49:22;;;;;;;14.93;2.30;;;;;;;;;;4957276;28;92652;-59
2023/10/30 02:51:49;;;;;;;15.63;2.28;;;;;;;;;;4956911;28;95289;-59
2023/10/30 02:54:15;;;;;;;17.58;2.83;;;;;;;;;;4956237;28;94415;-59
2023/10/30 02:56:42;;;;;;;11.60;2.50;;;;;;;;;;4960242;28;92742;-60
2023/10/30 02:59:09;;;;;;;11.70;2.30;;;;;;;;;;4957211;28;94190;-59
2023/10/30 03:01:36;;;;;;;14.82;2.67;;;;;;;;;;4964441;28;94077;-60
2023/10/30 03:04:02;;;;;;;19.52;2.80;;;;;;;;;;4958156;28;93111;-58
2023/10/30 03:06:29;;;;;;;12.00;2.45;;;;;;;;;;4953205;28;94300;-59
2023/10/30 03:08:57;;;;;;;32.40;2.35;;;;;;;;;;4961426;28;92209;-60
2023/10/30 03:11:24;;;;;;;18.50;2.70;;;;;;;;;;4963507;28;92677;-60
2023/10/30 03:13:50;;;;;;;16.02;2.92;;;;;;;;;;4961394;28;94440;-59
2023/10/30 03:16:17;;;;;;;16.35;2.92;;;;;;;;;;4958377;28;94855;-60
2023/10/30 03:18:44;;;;;;;17.25;2.53;;;;;;;;;;4955123;28;95995;-60
2023/10/30 03:21:10;;;;;;;16.05;2.70;;;;;;;;;;4955536;28;94111;-59
2023/10/30 03:23:37;;;;;;;11.95;2.20;;;;;;;;;;4956516;28;92543;-60
2023/10/30 03:26:03;;;;;;;13.82;2.92;;;;;;;;;;4962223;28;93433;-59
2023/10/30 03:28:29;;;;;;;24.13;2.22;;;;;;;;;;4961828;28;92589;-59
2023/10/30 03:30:56;;;;;;;12.38;2.17;;;;;;;;;;4961842;28;93083;-60
2023/10/30 03:33:22;;;;;;;19.13;3.20;;;;;;;;;;4955185;28;93303;-60
2023/10/30 03:35:48;;;;;;;19.75;2.90;;;;;;;;;;4957266;28;92483;-60
2023/10/30 03:38:16;;;;;;;15.15;2.40;;;;;;;;;;4959508;28;93254;-60
2023/10/30 03:40:42;;;;;;;12.70;2.67;;;;;;;;;;4963009;28;95792;-59
2023/10/30 03:43:08;;;;;;;15.55;2.17;;;;;;;;;;4954225;28;92578;-60
2023/10/30 03:45:35;;;;;;;15.63;2.35;;;;;;;;;;4962435;28;93194;-58
2023/10/30 03:48:01;;;;;;;17.83;2.30;;;;;;;;;;4959452;28;92335;-60
2023/10/30 03:50:28;;;;;;;19.38;3.08;;;;;;;;;;4961845;28;93204;-60
2023/10/30 03:52:54;;;;;;;18.42;2.40;;;;;;;;;;4958876;28;94800;-58
2023/10/30 03:55:20;;;;;;;19.98;2.55;;;;;;;;;;4961052;28;92566;-62
2023/10/30 03:57:47;;;;;;;18.33;2.40;;;;;;;;;;4958611;28;93084;-60
2023/10/30 04:00:13;;;;;;;17.38;2.63;;;;;;;;;;4962408;28;93476;-59
2023/10/30 04:02:40;;;;;;;17.05;2.78;;;;;;;;;;4961609;28;92638;-61
2023/10/30 04:05:06;;;;;;;21.58;2.33;;;;;;;;;;4955014;28;95003;-60
2023/10/30 04:07:33;;;;;;;14.88;2.10;;;;;;;;;;4953020;28;92542;-61
2023/10/30 04:09:59;;;;;;;10.65;2.00;;;;;;;;;;4960733;28;94169;-60
2023/10/30 04:12:25;;;;;;;16.65;2.67;;;;;;;;;;4962001;28;94664;-60
2023/10/30 04:14:52;;;;;;;12.23;2.05;;;;;;;;;;4961228;28;92408;-60
2023/10/30 04:17:18;;;;;;;21.45;2.55;;;;;;;;;;4960065;28;94200;-60
2023/10/30 04:19:45;;;;;;;14.68;2.15;;;;;;;;;;4961378;28;94406;-60
2023/10/30 04:22:11;;;;;;;21.17;2.75;;;;;;;;;;4962140;28;91838;-58
2023/10/30 04:24:38;;;;;;;20.40;2.90;;;;;;;;;;4958921;28;93023;-59
2023/10/30 04:27:05;;;;;;;12.32;2.17;;;;;;;;;;4962785;28;93447;-58
2023/10/30 04:29:32;;;;;;;10.75;2.17;;;;;;;;;;4957152;28;94750;-60
2023/10/30 04:31:58;;;;;;;9.60;2.28;;;;;;;;;;4958431;28;93428;-60
2023/10/30 04:34:25;;;;;;;11.25;1.77;;;;;;;;;;4957905;28;92501;-59
2023/10/30 04:36:51;;;;;;;18.73;2.40;;;;;;;;;;4948999;28;95085;-59
2023/10/30 04:39:17;;;;;;;12.95;1.98;;;;;;;;;;4951881;28;94537;-59
2023/10/30 04:41:44;;;;;;;17.45;2.40;;;;;;;;;;4954625;28;92577;-60
2023/10/30 04:44:10;;;;;;;16.08;2.45;;;;;;;;;;4949367;28;93147;-60
2023/10/30 04:46:36;;;;;;;13.68;2.22;;;;;;;;;;4956572;28;91812;-60
2023/10/30 04:49:03;;;;;;;15.15;2.75;;;;;;;;;;4959567;28;92577;-60
2023/10/30 04:51:29;;;;;;;14.80;2.05;;;;;;;;;;4960064;28;93410;-60
2023/10/30 04:53:56;;;;;;;11.80;2.35;;;;;;;;;;4956532;28;94944;-59
2023/10/30 04:56:22;;;;;;;13.00;1.92;;;;;;;;;;4958896;28;95901;-59
2023/10/30 04:58:49;;;;;;;12.68;2.97;;;;;;;;;;4954897;28;94372;-60
2023/10/30 05:01:15;;;;;;;18.67;2.78;;;;;;;;;;4959519;28;92476;-60
2023/10/30 05:03:41;;;;;;;15.45;2.85;;;;;;;;;;4957800;28;93012;-60
2023/10/30 05:06:08;;;;;;;8.48;1.85;;;;;;;;;;4959108;28;94516;-60
2023/10/30 05:08:35;;;;;;;16.27;2.38;;;;;;;;;;4952490;28;92746;-60
2023/10/30 05:11:01;;;;;;;15.07;2.22;;;;;;;;;;4966670;28;93142;-60
2023/10/30 05:13:28;;;;;;;27.92;2.95;;;;;;;;;;4957981;28;92806;-60
2023/10/30 05:15:57;;;;;;;17.55;2.85;;;;;;;;;;4966889;28;93185;-60
2023/10/30 05:18:24;;;;;;;14.88;2.55;;;;;;;;;;4950760;28;96024;-60
2023/10/30 05:20:51;;;;;;;10.32;2.38;;;;;;;;;;4962789;28;92750;-60
2023/10/30 05:23:17;;;;;;;15.63;2.85;;;;;;;;;;4959862;28;93500;-60
2023/10/30 05:25:43;;;;;;;21.17;2.53;;;;;;;;;;4961195;28;93561;-60
2023/10/30 05:28:10;;;;;;;13.38;2.10;;;;;;;;;;4962644;28;92485;-59
2023/10/30 05:30:37;;;;;;;15.45;2.33;;;;;;;;;;4962310;28;93583;-60
2023/10/30 05:33:04;;;;;;;7.05;2.10;;;;;;;;;;4961168;28;94463;-60
2023/10/30 05:35:30;;;;;;;16.65;2.58;;;;;;;;;;4959008;28;94123;-60
2023/10/30 05:37:57;;;;;;;17.35;2.33;;;;;;;;;;4963692;28;93534;-60
2023/10/30 05:40:23;;;;;;;17.10;2.55;;;;;;;;;;4959894;28;94180;-60
2023/10/30 05:42:49;;;;;;;13.48;2.33;;;;;;;;;;4958274;28;97194;-60
2023/10/30 05:45:16;;;;;;;10.63;2.33;;;;;;;;;;4957396;28;93427;-60
2023/10/30 05:47:42;;;;;;;19.52;3.00;;;;;;;;;;4959267;28;92445;-60
2023/10/30 05:50:09;;;;;;;13.60;2.78;;;;;;;;;;4958497;28;94055;-60
2023/10/30 05:52:36;;;;;;;10.82;1.73;;;;;;;;;;4959580;28;93389;-60
2023/10/30 05:55:02;;;;;;;15.32;2.50;;;;;;;;;;4966719;28;92984;-60
2023/10/30 05:57:29;;;;;;;10.27;1.50;;;;;;;;;;4963494;28;93393;-60
2023/10/30 05:59:55;;;;;;;13.48;2.25;;;;;;;;;;4958056;28;91575;-60
2023/10/30 06:02:21;;;;;;;17.27;2.58;;;;;;;;;;4966107;28;93477;-60
2023/10/30 06:04:47;;;;;;;21.05;2.30;;;;;;;;;;4963695;28;93563;-59
2023/10/30 06:07:14;;;;;;;12.70;1.95;;;;;;;;;;4961194;28;94756;-59
2023/10/30 06:09:41;;;;;;;21.40;2.67;;;;;;;;;;4967129;28;95506;-60
2023/10/30 06:12:08;;;;;;;14.90;2.40;;;;;;;;;;4960158;28;92683;-60
2023/10/30 06:14:34;;;;;;;12.02;2.15;;;;;;;;;;4964751;28;92932;-60
2023/10/30 06:17:02;;;;;;;8.82;2.00;;;;;;;;;;4962141;28;93123;-60
2023/10/30 06:19:28;;;;;;;20.75;3.33;;;;;;;;;;4960965;28;92441;-60
2023/10/30 06:21:55;;;;;;;14.90;1.98;;;;;;;;;;4960212;28;93202;-60
2023/10/30 06:24:21;;;;;;;13.65;1.88;;;;;;;;;;4960900;28;93531;-60
2023/10/30 06:26:47;;;;;;;15.07;2.53;;;;;;;;;;4962801;28;93283;-60
2023/10/30 06:29:14;;;;;;;15.38;2.58;;;;;;;;;;4960723;28;93037;-60
2023/10/30 06:31:40;;;;;;;13.65;2.17;;;;;;;;;;4965011;28;96818;-60
2023/10/30 06:34:07;;;;;;;20.83;2.55;;;;;;;;;;4958059;28;92809;-60
2023/10/30 06:36:33;;;;;;;19.40;2.67;;;;;;;;;;4960087;28;93214;-60
2023/10/30 06:39:01;;;;;;;12.10;2.00;;;;;;;;;;4942729;28;95223;-60
2023/10/30 06:41:27;;;;;;;16.58;2.42;;;;;;;;;;4940045;28;94754;-60
2023/10/30 06:43:54;;;;;;;14.43;2.20;;;;;;;;;;4941527;28;93359;-59
2023/10/30 06:46:20;;;;;;;11.48;2.30;;;;;;;;;;4940404;28;92827;-59
2023/10/30 06:48:47;;;;;;;12.57;2.13;;;;;;;;;;4939055;28;92776;-60
2023/10/30 06:51:13;;;;;;;12.40;2.38;;;;;;;;;;4940722;28;93512;-60
2023/10/30 06:53:40;;;;;;;8.50;2.20;;;;;;;;;;4944060;28;93240;-60
2023/10/30 06:56:06;;;;;;;12.68;2.53;;;;;;;;;;4937986;28;96341;-59
2023/10/30 06:58:32;;;;;;;17.60;3.40;;;;;;;;;;4943214;28;94430;-60
2023/10/30 07:01:02;;;;;;;13.05;2.13;;;;;;;;;;4942093;28;95886;-60
2023/10/30 07:03:29;;;;;;;23.75;2.67;;;;;;;;;;4938859;28;94575;-59
2023/10/30 07:05:56;;;;;;;16.73;2.30;;;;;;;;;;4939394;28;94268;-60
2023/10/30 07:08:22;;;;;;;14.70;2.97;;;;;;;;;;4939892;28;94703;-60
2023/10/30 07:10:49;;;;;;;10.02;2.30;;;;;;;;;;4938406;28;94175;-59
2023/10/30 07:13:15;;;;;;;10.52;1.98;;;;;;;;;;4937505;28;93626;-60
2023/10/30 07:15:41;;;;;;;13.35;2.97;;;;;;;;;;4939330;28;94196;-60
2023/10/30 07:18:08;;;;;;;12.40;2.50;;;;;;;;;;4935897;28;94456;-61
2023/10/30 07:20:34;;;;;;;15.63;2.55;;;;;;;;;;4942351;28;96260;-60
2023/10/30 07:23:01;;;;;;;12.93;2.88;;;;;;;;;;4939510;28;94551;-60
2023/10/30 07:25:27;;;;;;;15.82;2.25;;;;;;;;;;4941635;28;94535;-60
2023/10/30 07:27:53;;;;;;;13.15;2.42;;;;;;;;;;4937946;28;94070;-59
2023/10/30 07:30:19;;;;;;;19.00;2.67;;;;;;;;;;4939400;28;94806;-59
2023/10/30 07:32:48;;;;;;;14.45;2.22;;;;;;;;;;4939392;28;94267;-59
2023/10/30 07:35:15;;;;;;;14.88;2.47;;;;;;;;;;4937322;28;94149;-59
2023/10/30 07:37:41;;;;;;;14.57;2.70;;;;;;;;;;4940981;28;92689;-59
2023/10/30 07:40:08;;;;;;;13.05;2.30;;;;;;;;;;4939583;28;93069;-58
2023/10/30 07:42:34;;;;;;;18.67;2.95;;;;;;;;;;4940854;28;93519;-59
2023/10/30 07:45:00;;;;;;;16.83;2.30;;;;;;;;;;4936877;28;97941;-58
2023/10/30 07:47:27;;;;;;;19.92;3.05;;;;;;;;;;4939691;28;96630;-59
2023/10/30 07:50:08;;;;;;;21.52;3.17;;;;;;;;;;4938835;28;94265;-59
2023/10/30 07:52:35;;;;;;;22.83;2.67;;;;;;;;;;4945337;28;93066;-59
2023/10/30 07:55:05;;;;;;;21.55;2.55;;;;;;;;;;4940258;28;94431;-57
2023/10/30 07:57:31;;;;;;;13.20;2.35;;;;;;;;;;4941984;28;94394;-59
2023/10/30 07:59:57;;;;;;;13.30;2.63;;;;;;;;;;4944224;28;94000;-60
2023/10/30 08:02:24;;;;;;;14.27;2.50;;;;;;;;;;4942430;28;93254;-59
2023/10/30 08:04:50;;;;;;;17.05;2.55;;;;;;;;;;4942871;28;92706;-58
2023/10/30 08:07:17;;;;;;;14.02;2.10;;;;;;;;;;4962994;28;93319;-59
2023/10/30 08:09:43;;;;;;;19.20;1.98;;;;;;;;;;4950813;28;96916;-59
2023/10/30 08:12:10;;;;;;;17.27;2.80;;;;;;;;;;4964746;28;92611;-59
2023/10/30 08:14:36;;;;;;;15.88;2.15;;;;;;;;;;4960268;28;93031;-59
2023/10/30 08:17:03;;;;;;;12.60;2.53;;;;;;;;;;4962345;28;93523;-59
2023/10/30 08:19:29;;;;;;;15.60;2.80;;;;;;;;;;4962335;28;92522;-58
2023/10/30 08:21:56;;;;;;;14.18;2.45;;;;;;;;;;4948436;28;94068;-57
2023/10/30 08:24:22;;;;;;;15.88;2.50;;;;;;;;;;4962395;28;93573;-58
2023/10/30 08:26:48;;;;;;;10.35;2.10;;;;;;;;;;4960423;28;93128;-58
2023/10/30 08:29:14;;;;;;;7.15;1.90;;;;;;;;;;4963646;28;93405;-58
2023/10/30 08:31:41;;;;;;;16.65;2.97;;;;;;;;;;4959576;28;92513;-59
2023/10/30 08:34:07;;;;;;;10.80;1.85;;;;;;;;;;4958777;28;94973;-58
2023/10/30 08:36:33;;;;;;;15.85;2.67;;;;;;;;;;4951502;28;93570;-60
2023/10/30 08:39:00;;;;;;;18.70;2.45;;;;;;;;;;4959222;28;92475;-60
2023/10/30 08:41:26;;;;;;;19.55;3.13;;;;;;;;;;4958439;28;94283;-60
2023/10/30 08:43:53;;;;;;;8.60;2.25;;;;;;;;;;4962834;28;93379;-60
2023/10/30 08:46:19;;;;;;;18.30;3.45;;;;;;;;;;4961468;28;92497;-60
2023/10/30 08:48:46;;;;;;;11.80;2.60;;;;;;;;;;4964204;28;93215;-60
2023/10/30 08:51:13;;;;;;;12.52;2.33;;;;;;;;;;4955380;28;91836;-60
2023/10/30 08:53:39;;;;;;;30.70;2.70;;;;;;;;;;4958912;28;92456;-60
2023/10/30 08:56:06;;;;;;;15.05;2.28;;;;;;;;;;4956776;28;93429;-60
2023/10/30 08:58:32;;;;;;;11.73;2.55;;;;;;;;;;4959311;28;94805;-60
2023/10/30 09:00:59;;;;;;;23.58;2.97;;;;;;;;;;4961814;28;95614;-60
2023/10/30 09:03:25;;;;;;;17.67;2.28;;;;;;;;;;4954784;28;93281;-59
2023/10/30 09:05:52;;;;;;;15.15;2.78;;;;;;;;;;4961473;28;92442;-60
2023/10/30 09:08:18;;;;;;;17.38;3.95;;;;;;;;;;4963014;28;93222;-58
2023/10/30 09:10:45;;;;;;;11.68;2.08;;;;;;;;;;4961333;28;92407;-58
2023/10/30 09:13:11;;;;;;;14.73;2.90;;;;;;;;;;4959330;28;92888;-57
2023/10/30 09:15:37;;;;;;;16.27;5.03;;;;;;;;;;4957089;28;92728;-58
2023/10/30 09:18:04;;;;;;;18.98;4.53;;;;;;;;;;4958020;28;92459;-58
2023/10/30 09:20:30;;;;;;;15.25;3.95;;;;;;;;;;4961860;28;93395;-58
2023/10/30 09:22:57;;;;;;;18.00;2.92;;;;;;;;;;4956485;28;96980;-57
2023/10/30 09:25:23;;;;;;;17.92;3.13;;;;;;;;;;4962153;28;92450;-58
2023/10/30 09:27:52;;;;;;;23.48;2.80;;;;;;;;;;4951579;28;93156;-56
2023/10/30 09:30:19;;;;;;;17.30;2.40;;;;;;;;;;4954635;28;93764;-59
2023/10/30 09:32:45;;;;;;;24.40;3.15;;;;;;;;;;4949207;28;92481;-56
2023/10/30 09:35:11;;;;;;;22.05;3.58;;;;;;;;;;4954731;28;93426;-57
2023/10/30 09:37:39;;;;;;;7.65;2.22;;;;;;;;;;4961705;28;92459;-57
2023/10/30 09:40:06;;;;;;;15.27;2.63;;;;;;;;;;4959040;28;92901;-58
2023/10/30 09:42:34;;;;;;;18.15;3.10;;;;;;;;;;4953177;28;93406;-57
2023/10/30 09:45:00;;;;;;;17.88;2.67;;;;;;;;;;4956378;28;92578;-57
2023/10/30 09:47:27;;;;;;;14.75;3.35;;;;;;;;;;4954763;28;94922;-58
2023/10/30 09:49:54;;;;;;;12.05;2.22;;;;;;;;;;4963743;28;93418;-54
2023/10/30 09:52:21;;;;;;;8.57;2.33;;;;;;;;;;4958081;28;92372;-58
2023/10/30 09:54:48;;;;;;;10.13;2.30;;;;;;;;;;4955399;28;93135;-56
2023/10/30 09:57:15;;;;;;;9.38;1.63;;;;;;;;;;4962243;28;92574;-57
2023/10/30 09:59:43;;;;;;;14.30;2.17;;;;;;;;;;4954879;28;93479;-57
2023/10/30 10:02:10;;;;;;;10.82;2.45;;;;;;;;;;4960801;28;94379;-57
2023/10/30 10:04:41;;;;;;;8.98;2.33;;;;;;;;;;4954831;28;92280;-56
2023/10/30 10:07:08;;;;;;;10.73;2.53;;;;;;;;;;4961331;28;92527;-57
2023/10/30 10:09:34;;;;;;;14.52;2.38;;;;;;;;;;4963893;28;93301;-58
2023/10/30 10:12:01;;;;;;;17.40;2.63;;;;;;;;;;4958281;28;95007;-58
2023/10/30 10:14:29;;;;;;;15.40;3.00;;;;;;;;;;4960064;28;93468;-56
2023/10/30 10:16:57;;;;;;;16.27;2.50;;;;;;;;;;4961358;28;92442;-58
2023/10/30 10:19:26;;;;;;;16.50;2.45;;;;;;;;;;4965470;28;93109;-58
2023/10/30 10:21:52;;;;;;;11.90;2.97;;;;;;;;;;4959054;28;93434;-57
2023/10/30 10:24:28;;;;;;;18.00;3.25;;;;;;;;;;4965211;28;92881;-58
2023/10/30 10:27:02;;;;;;;11.68;2.20;;;;;;;;;;4957745;28;93146;-58
2023/10/30 10:29:29;;;;;;;12.55;2.55;;;;;;;;;;4960008;28;93276;-58
2023/10/30 10:31:56;;;;;;;18.00;2.67;;;;;;;;;;4962996;28;92451;-57
2023/10/30 10:34:23;;;;;;;8.35;2.15;;;;;;;;;;4960976;28;94213;-58
2023/10/30 10:36:49;;;;;;;11.55;2.30;;;;;;;;;;4960476;28;95148;-58
2023/10/30 10:39:16;;;;;;;14.25;2.38;;;;;;;;;;4958732;28;95632;-58
2023/10/30 10:41:42;;;;;;;20.67;3.25;;;;;;;;;;4964067;28;94549;-58
2023/10/30 10:44:09;;;;;;;11.50;2.45;;;;;;;;;;4960870;28;92343;-58
2023/10/30 10:46:35;;;;;;;12.05;2.60;;;;;;;;;;4961305;28;93198;-59
2023/10/30 10:49:04;;;;;;;12.25;2.10;;;;;;;;;;4956466;28;93558;-59
2023/10/30 10:51:33;;;;;;;14.30;2.72;;;;;;;;;;4959046;28;92615;-59
2023/10/30 10:54:03;;;;;;;18.55;2.45;;;;;;;;;;4958074;28;96681;-59
2023/10/30 10:56:30;;;;;;;17.27;2.22;;;;;;;;;;4954451;28;93891;-59
2023/10/30 10:59:01;;;;;;;17.38;2.58;;;;;;;;;;4962694;28;93117;-57
2023/10/30 11:01:29;;;;;;;8.32;2.28;;;;;;;;;;4959471;28;95871;-58
2023/10/30 11:03:55;;;;;;;13.68;2.38;;;;;;;;;;4958060;28;92483;-59
2023/10/30 11:06:24;;;;;;;12.93;2.45;;;;;;;;;;4957061;28;93358;-59
2023/10/30 11:08:55;;;;;;;12.35;2.70;;;;;;;;;;4962826;28;93257;-59
2023/10/30 11:11:28;;;;;;;22.30;3.70;;;;;;;;;;4957276;28;94194;-59
2023/10/30 11:14:10;;;;;;;16.77;2.60;;;;;;;;;;4955087;28;93880;-59
2023/10/30 11:16:46;;;;;;;12.50;2.08;;;;;;;;;;4948604;28;94471;-60
2023/10/30 11:19:17;;;;;;;15.98;3.25;;;;;;;;;;4967848;28;91760;-60
2023/10/30 11:21:46;;;;;;;13.38;2.65;;;;;;;;;;4962230;28;94918;-60
2023/10/30 11:24:33;;;;;;;21.00;4.82;;;;;;;;;;4958125;28;93338;-60
2023/10/30 11:26:59;;;;;;;19.48;4.10;;;;;;;;;;4956015;28;95054;-61
2023/10/30 11:29:46;;;;;;;20.27;4.00;;;;;;;;;;4964150;28;93801;-62
2023/10/30 11:32:14;;;;;;;14.65;3.13;;;;;;;;;;4950533;28;92715;-59
2023/10/30 11:34:43;;;;;;;19.20;2.97;;;;;;;;;;4963660;28;93185;-61
2023/10/30 11:37:11;;;;;;;16.15;3.17;;;;;;;;;;4961063;28;94813;-61
2023/10/30 11:39:41;;;;;;;23.33;3.08;;;;;;;;;;4954733;28;92777;-61
2023/10/30 11:42:27;;;;;;;14.18;2.47;;;;;;;;;;4957847;28;93919;-62
2023/10/30 11:45:13;;;;;;;16.98;3.40;;;;;;;;;;4954115;28;91782;-62
2023/10/30 11:47:45;;;;;;;22.27;3.58;;;;;;;;;;4960161;28;93452;-62
2023/10/30 11:50:12;;;;;;;22.43;2.50;;;;;;;;;;4961655;28;93876;-61
2023/10/30 11:52:38;;;;;;;23.63;2.50;;;;;;;;;;4955168;28;94936;-63
2023/10/30 11:55:05;;;;;;;15.98;2.45;;;;;;;;;;4964643;28;95564;-62
2023/10/30 11:57:36;;;;;;;16.83;3.10;;;;;;;;;;4956794;28;93692;-62
2023/10/30 12:00:02;;;;;;;10.68;2.22;;;;;;;;;;4960447;28;92582;-62
2023/10/30 12:02:29;;;;;;;19.90;2.70;;;;;;;;;;4960713;28;92983;-62
2023/10/30 12:05:06;;;;;;;14.15;2.05;;;;;;;;;;4961466;28;93487;-63
2023/10/30 12:07:32;;;;;;;13.13;2.15;;;;;;;;;;4955393;28;93065;-62
2023/10/30 12:10:03;;;;;;;21.13;2.80;;;;;;;;;;4956254;28;92658;-62
2023/10/30 12:12:30;;;;;;;18.80;3.05;;;;;;;;;;4949911;28;92733;-62
2023/10/30 12:14:59;;;;;;;15.68;2.15;;;;;;;;;;4954437;28;92578;-62
2023/10/30 12:17:26;;;;;;;8.25;1.70;;;;;;;;;;4951272;28;96001;-63
2023/10/30 12:19:53;;;;;;;9.95;2.22;;;;;;;;;;4960737;28;92648;-63
2023/10/30 12:22:19;;;;;;;12.50;1.90;;;;;;;;;;4956053;28;93113;-64
2023/10/30 12:24:46;;;;;;;11.63;2.65;;;;;;;;;;4966585;28;93573;-62
2023/10/30 12:27:22;;;;;;;15.18;2.40;;;;;;;;;;4954959;28;93286;-62
2023/10/30 12:29:54;;;;;;;14.30;2.13;;;;;;;;;;4954114;28;93431;-63
2023/10/30 12:32:21;;;;;;;23.33;3.13;;;;;;;;;;4961244;28;93106;-63
2023/10/30 12:34:47;;;;;;;9.68;2.05;;;;;;;;;;4961346;28;92934;-63
2023/10/30 12:37:16;;;;;;;10.82;2.22;;;;;;;;;;4962986;28;93281;-63
2023/10/30 12:40:18;;;;;;;19.10;3.35;;;;;;;;;;4957107;28;92466;-63
2023/10/30 12:42:46;;;;;;;13.48;2.58;;;;;;;;;;4886911;28;95047;-64
2023/10/30 12:45:14;;;;;;;13.23;2.72;;;;;;;;;;4957627;28;93727;-63
2023/10/30 12:47:41;;;;;;;11.13;2.75;;;;;;;;;;4966139;28;92509;-63
2023/10/30 12:50:08;;;;;;;15.27;3.28;;;;;;;;;;4954074;28;94514;-63
2023/10/30 12:52:34;;;;;;;13.18;3.42;;;;;;;;;;4949262;28;92508;-63
2023/10/30 12:55:01;;;;;;;14.70;2.33;;;;;;;;;;4959741;28;93343;-63
2023/10/30 12:57:27;;;;;;;10.02;2.83;;;;;;;;;;4952775;28;94663;-63
2023/10/30 12:59:54;;;;;;;15.05;3.08;;;;;;;;;;4956900;28;91800;-63
2023/10/30 13:02:20;;;;;;;14.25;3.95;;;;;;;;;;4961572;28;93418;-63
2023/10/30 13:04:47;;;;;;;16.13;4.75;;;;;;;;;;4956788;28;94181;-63
2023/10/30 13:07:15;;;;;;;15.77;5.65;;;;;;;;;;4962388;28;94876;-62
2023/10/30 13:09:42;;;;;;;12.27;4.28;;;;;;;;;;4961462;28;95747;-63
2023/10/30 13:12:08;;;;;;;7.95;2.35;;;;;;;;;;4951720;28;92534;-63
2023/10/30 13:14:35;;;;;;;19.77;2.28;;;;;;;;;;4958903;28;93144;-63
2023/10/30 13:17:01;;;;;;;10.63;1.65;;;;;;;;;;4964138;28;93403;-63
2023/10/30 13:19:28;;;;;;;6.07;1.77;;;;;;;;;;4950595;28;93423;-63
2023/10/30 13:21:54;;;;;;;13.55;2.05;;;;;;;;;;4959793;28;93130;-64
2023/10/30 13:24:21;;;;;;;11.90;2.17;;;;;;;;;;4961066;28;93517;-63
2023/10/30 13:26:47;;;;;;;10.73;2.17;;;;;;;;;;4959910;28;92442;-62
2023/10/30 13:29:13;;;;;;;13.57;3.50;;;;;;;;;;4962089;28;93092;-62
2023/10/30 13:31:40;;;;;;;11.75;2.33;;;;;;;;;;4960117;28;95716;-63
2023/10/30 13:34:06;;;;;;;8.48;2.10;;;;;;;;;;4960789;28;95806;-62
2023/10/30 13:36:33;;;;;;;10.40;2.20;;;;;;;;;;4963603;28;93446;-63
2023/10/30 13:38:59;;;;;;;14.77;2.85;;;;;;;;;;4959840;28;92497;-63
2023/10/30 13:41:25;;;;;;;12.73;3.40;;;;;;;;;;4958618;28;94204;-62
2023/10/30 13:43:52;;;;;;;11.38;2.47;;;;;;;;;;4963967;28;93062;-63
2023/10/30 13:46:20;;;;;;;9.77;2.40;;;;;;;;;;4961073;28;92478;-65
2023/10/30 13:48:48;;;;;;;12.73;2.50;;;;;;;;;;4959341;28;92500;-63
2023/10/30 13:51:15;;;;;;;10.68;2.78;;;;;;;;;;4958104;28;94407;-64
2023/10/30 13:53:41;;;;;;;6.82;2.53;;;;;;;;;;4968458;28;92526;-63
2023/10/30 13:56:08;;;;;;;7.80;1.77;;;;;;;;;;4964650;28;95826;-63
2023/10/30 13:58:36;;;;;;;9.05;2.03;;;;;;;;;;4962028;28;92448;-63
2023/10/30 14:01:02;;;;;;;13.20;3.03;;;;;;;;;;4955029;28;93135;-63
2023/10/30 14:03:28;;;;;;;13.80;3.25;;;;;;;;;;4963003;28;93489;-63
2023/10/30 14:05:55;;;;;;;15.13;2.45;;;;;;;;;;4957991;28;94549;-64
2023/10/30 14:08:21;;;;;;;10.50;2.50;;;;;;;;;;4960008;28;92603;-63
2023/10/30 14:10:48;;;;;;;15.13;2.90;;;;;;;;;;4958828;28;93575;-63
2023/10/30 14:13:14;;;;;;;10.05;3.05;;;;;;;;;;4962303;28;91795;-62
2023/10/30 14:15:42;;;;;;;11.10;3.10;;;;;;;;;;4966718;28;92637;-63
2023/10/30 14:18:08;;;;;;;12.48;2.70;;;;;;;;;;4956353;28;92513;-62
2023/10/30 14:20:35;;;;;;;12.95;2.17;;;;;;;;;;4960763;28;94903;-63
2023/10/30 14:23:02;;;;;;;8.02;2.08;;;;;;;;;;4955690;28;93443;-62
2023/10/30 14:25:28;;;;;;;10.60;2.63;;;;;;;;;;4962382;28;92864;-63
2023/10/30 14:27:54;;;;;;;12.05;2.72;;;;;;;;;;4959867;28;93074;-62
2023/10/30 14:30:21;;;;;;;12.18;2.53;;;;;;;;;;4958084;28;93539;-62